createdAt,value
2019-05-13T00:02:04.537Z,1.13
2019-05-13T00:04:34.086Z,1.20
2019-05-13T00:07:04.736Z,1.30
2019-05-13T00:09:34.278Z,1.30
2019-05-13T00:12:04.677Z,1.20
2019-05-13T00:14:34.536Z,1.47
2019-05-13T00:17:04.407Z,1.40
2019-05-13T00:19:34.048Z,1.00
2019-05-13T00:22:03.733Z,1.57
2019-05-13T00:24:33.898Z,1.77
2019-05-13T00:27:03.994Z,1.30
2019-05-13T00:29:34.092Z,1.40
2019-05-13T00:32:04.851Z,1.50
2019-05-13T00:34:34.604Z,1.50
2019-05-13T00:37:11.145Z,1.20
2019-05-13T00:39:34.814Z,1.43
2019-05-13T00:42:04.265Z,1.73
2019-05-13T00:44:33.944Z,1.40
2019-05-13T00:47:04.423Z,1.77
2019-05-13T00:49:34.723Z,1.30
2019-05-13T00:52:04.254Z,1.50
2019-05-13T00:54:34.160Z,2.07
2019-05-13T00:57:04.301Z,1.33
2019-05-13T00:59:34.162Z,1.50
2019-05-13T01:02:04.066Z,1.67
2019-05-13T01:04:33.943Z,1.83
2019-05-13T01:07:04.415Z,1.77
2019-05-13T01:09:34.212Z,1.97
2019-05-13T01:12:04.542Z,2.17
2019-05-13T01:14:34.262Z,1.70
2019-05-13T01:17:03.994Z,1.93
2019-05-13T01:19:34.193Z,2.00
2019-05-13T01:22:03.751Z,2.20
2019-05-13T01:24:33.602Z,1.90
2019-05-13T01:27:04.147Z,2.00
2019-05-13T01:29:34.416Z,1.90
2019-05-13T01:32:04.544Z,2.80
2019-05-13T01:34:34.132Z,2.67
2019-05-13T01:37:04.288Z,2.30
2019-05-13T01:39:35.045Z,2.23
2019-05-13T01:42:04.438Z,2.57
2019-05-13T01:44:33.896Z,2.83
2019-05-13T01:47:04.605Z,2.83
2019-05-13T01:49:54.230Z,2.97
2019-05-13T01:52:23.836Z,3.00
2019-05-13T01:54:54.347Z,2.63
2019-05-13T01:57:24.024Z,2.60
2019-05-13T01:59:53.888Z,2.47
2019-05-13T02:02:24.247Z,2.60
2019-05-13T02:04:53.637Z,3.53
2019-05-13T02:07:24.426Z,2.87
2019-05-13T02:09:54.362Z,2.90
2019-05-13T02:12:24.020Z,3.20
2019-05-13T02:14:53.891Z,3.00
2019-05-13T02:17:23.502Z,3.27
2019-05-13T02:19:54.049Z,3.03
2019-05-13T02:22:24.761Z,3.33
2019-05-13T02:24:54.594Z,3.70
2019-05-13T02:27:25.572Z,3.37
2019-05-13T02:29:54.797Z,3.80
2019-05-13T02:32:24.383Z,4.00
2019-05-13T02:34:53.714Z,4.20
2019-05-13T02:37:23.359Z,4.00
2019-05-13T02:39:53.243Z,4.40
2019-05-13T02:42:23.030Z,4.53
2019-05-13T02:44:53.128Z,4.60
2019-05-13T02:47:22.813Z,4.23
2019-05-13T02:49:53.356Z,4.40
2019-05-13T02:52:22.815Z,4.50
2019-05-13T02:54:52.796Z,4.23
2019-05-13T02:57:23.394Z,3.97
2019-05-13T02:59:52.902Z,4.57
2019-05-13T03:02:22.590Z,4.33
2019-05-13T03:04:52.449Z,4.83
2019-05-13T03:07:23.262Z,4.67
2019-05-13T03:09:53.039Z,4.90
2019-05-13T03:12:23.031Z,5.17
2019-05-13T03:14:53.280Z,4.87
2019-05-13T03:17:28.249Z,5.30
2019-05-13T03:19:57.615Z,5.90
2019-05-13T03:22:27.007Z,5.80
2019-05-13T03:24:56.253Z,5.97
2019-05-13T03:27:25.563Z,5.80
2019-05-13T03:29:55.006Z,5.43
2019-05-13T03:32:26.114Z,5.93
2019-05-13T03:34:56.860Z,5.67
2019-05-13T03:37:27.430Z,6.17
2019-05-13T03:39:57.445Z,6.27
2019-05-13T03:42:27.988Z,6.03
2019-05-13T03:44:58.889Z,6.57
2019-05-13T03:47:32.804Z,6.43
2019-05-13T03:50:03.583Z,6.80
2019-05-13T03:52:33.596Z,6.63
2019-05-13T03:55:03.454Z,7.40
2019-05-13T03:57:33.951Z,7.40
2019-05-13T04:00:03.908Z,8.10
2019-05-13T04:02:33.770Z,7.73
2019-05-13T04:05:04.301Z,7.50
2019-05-13T04:07:34.024Z,7.23
2019-05-13T04:10:03.809Z,7.53
2019-05-13T04:12:33.586Z,7.27
2019-05-13T04:15:03.727Z,7.67
2019-05-13T04:17:33.391Z,7.90
2019-05-13T04:20:03.191Z,7.83
2019-05-13T04:22:33.319Z,7.40
2019-05-13T04:25:02.730Z,7.50
2019-05-13T04:27:32.820Z,7.80
2019-05-13T04:30:03.534Z,7.67
2019-05-13T04:32:33.722Z,7.83
2019-05-13T04:35:04.128Z,8.17
2019-05-13T04:37:33.735Z,8.20
2019-05-13T04:40:03.863Z,8.77
2019-05-13T04:42:33.590Z,8.63
2019-05-13T04:45:03.606Z,8.17
2019-05-13T04:47:33.529Z,8.27
2019-05-13T04:50:03.577Z,7.97
2019-05-13T04:52:33.242Z,7.93
2019-05-13T04:55:03.615Z,7.80
2019-05-13T04:57:33.429Z,8.03
2019-05-13T05:00:04.226Z,8.50
2019-05-13T05:03:03.392Z,8.23
2019-05-13T05:06:12.025Z,7.87
2019-05-13T05:09:07.085Z,8.07
2019-05-13T05:12:32.116Z,7.43
2019-05-13T05:15:32.243Z,7.23
2019-05-13T05:18:26.085Z,7.27
2019-05-13T05:21:25.582Z,6.80
2019-05-13T05:24:32.353Z,7.40
2019-05-13T05:27:57.908Z,7.40
2019-05-13T05:30:54.879Z,6.30
2019-05-13T05:34:21.920Z,6.43
2019-05-13T05:37:31.280Z,5.50
2019-05-13T05:40:03.236Z,6.33
2019-05-13T05:42:34.983Z,5.30
2019-05-13T05:45:05.054Z,4.87
2019-05-13T05:47:36.672Z,5.10
2019-05-13T05:50:06.443Z,4.67
2019-05-13T05:52:37.172Z,5.53
2019-05-13T05:55:07.775Z,4.83
2019-05-13T05:57:41.936Z,4.30
2019-05-13T06:00:12.475Z,4.00
2019-05-13T06:02:44.382Z,3.80
2019-05-13T06:05:21.350Z,3.50
2019-05-13T06:07:51.414Z,3.50
2019-05-13T06:10:22.573Z,3.13
2019-05-13T06:12:52.373Z,2.97
2019-05-13T06:15:22.524Z,2.80
2019-05-13T06:17:52.123Z,2.23
2019-05-13T06:20:21.484Z,2.63
2019-05-13T06:22:51.553Z,2.63
2019-05-13T06:25:24.008Z,2.50
2019-05-13T06:27:53.307Z,3.10
2019-05-13T06:30:22.476Z,4.00
2019-05-13T06:32:52.829Z,3.07
2019-05-13T06:35:22.411Z,3.10
2019-05-13T06:38:02.452Z,3.60
2019-05-13T06:40:31.955Z,3.23
2019-05-13T06:43:01.515Z,3.40
2019-05-13T06:45:31.662Z,3.63
2019-05-13T06:48:02.410Z,3.40
2019-05-13T06:50:32.466Z,2.90
2019-05-13T06:53:02.872Z,3.23
2019-05-13T06:55:32.471Z,3.27
2019-05-13T06:58:02.330Z,3.07
2019-05-13T07:00:34.692Z,2.70
2019-05-13T07:03:03.742Z,2.70
2019-05-13T07:05:52.599Z,2.87
2019-05-13T07:08:24.625Z,2.67
2019-05-13T07:10:53.758Z,2.27
2019-05-13T07:13:24.384Z,2.43
2019-05-13T07:15:53.692Z,1.90
2019-05-13T07:18:22.928Z,2.47
2019-05-13T07:20:53.036Z,2.60
2019-05-13T07:23:22.818Z,2.57
2019-05-13T07:25:56.450Z,2.50
2019-05-13T07:28:25.752Z,2.45
2019-05-13T07:30:57.120Z,2.52
2019-05-13T07:33:26.521Z,2.40
2019-05-13T07:36:02.803Z,2.60
2019-05-13T07:38:32.454Z,2.50
2019-05-13T07:41:06.828Z,2.97
2019-05-13T07:43:36.047Z,2.42
2019-05-13T07:46:05.244Z,2.60
2019-05-13T07:48:34.296Z,2.33
2019-05-13T07:51:05.726Z,2.80
2019-05-13T07:53:34.977Z,2.80
2019-05-13T07:56:04.398Z,2.33
2019-05-13T07:58:36.997Z,2.67
2019-05-13T08:01:04.743Z,2.90
2019-05-13T08:03:34.197Z,2.70
2019-05-13T08:06:03.603Z,2.37
2019-05-13T08:08:32.845Z,2.33
2019-05-13T08:11:03.731Z,2.47
2019-05-13T08:13:32.868Z,2.63
2019-05-13T08:16:02.295Z,3.43
2019-05-13T08:18:32.132Z,2.55
2019-05-13T08:21:02.291Z,2.80
2019-05-13T08:23:32.396Z,2.75
2019-05-13T08:26:02.372Z,3.35
2019-05-13T08:28:32.447Z,2.67
2019-05-13T08:31:02.349Z,2.62
2019-05-13T08:33:32.372Z,3.20
2019-05-13T08:36:01.893Z,2.92
2019-05-13T08:38:31.927Z,2.80
2019-05-13T08:41:02.084Z,2.35
2019-05-13T08:43:31.792Z,2.42
2019-05-13T08:46:02.279Z,2.20
2019-05-13T08:48:32.403Z,2.70
2019-05-13T08:51:03.058Z,2.58
2019-05-13T08:53:32.780Z,2.60
2019-05-13T08:56:02.667Z,2.05
2019-05-13T08:58:32.261Z,1.90
2019-05-13T09:01:02.191Z,1.95
2019-05-13T09:03:32.914Z,2.95
2019-05-13T09:06:02.904Z,2.13
2019-05-13T09:08:32.557Z,2.20
2019-05-13T09:11:02.809Z,2.08
2019-05-13T09:13:32.954Z,2.37
2019-05-13T09:16:02.715Z,2.08
2019-05-13T09:18:33.152Z,1.57
2019-05-13T09:21:03.765Z,1.95
2019-05-13T09:23:32.898Z,2.10
2019-05-13T09:26:02.749Z,1.80
2019-05-13T09:28:32.559Z,2.10
2019-05-13T09:31:02.323Z,1.65
2019-05-13T09:33:32.829Z,1.67
2019-05-13T09:36:02.507Z,1.65
2019-05-13T09:38:32.757Z,2.35
2019-05-13T09:41:02.546Z,1.90
2019-05-13T09:43:31.814Z,1.72
2019-05-13T09:46:01.717Z,1.67
2019-05-13T09:48:32.126Z,1.92
2019-05-13T09:51:02.460Z,1.67
2019-05-13T09:53:32.689Z,1.60
2019-05-13T09:56:02.525Z,1.37
2019-05-13T09:58:33.076Z,1.90
2019-05-13T10:01:02.781Z,2.05
2019-05-13T10:03:33.172Z,1.70
2019-05-13T10:06:02.826Z,2.02
2019-05-13T10:08:32.910Z,2.20
2019-05-13T10:11:02.286Z,1.77
2019-05-13T10:13:32.544Z,1.40
2019-05-13T10:16:01.726Z,1.65
2019-05-13T10:18:32.582Z,1.60
2019-05-13T10:21:02.649Z,1.55
2019-05-13T10:23:33.173Z,1.75
2019-05-13T10:26:06.226Z,2.05
2019-05-13T10:28:35.878Z,2.37
2019-05-13T10:31:05.659Z,2.10
2019-05-13T10:33:34.896Z,1.77
2019-05-13T10:36:04.303Z,2.47
2019-05-13T10:38:33.792Z,2.75
2019-05-13T10:41:03.810Z,2.17
2019-05-13T10:43:39.094Z,2.22
2019-05-13T10:46:04.645Z,2.00
2019-05-13T10:48:34.004Z,2.98
2019-05-13T10:51:03.351Z,2.22
2019-05-13T10:53:32.544Z,1.90
2019-05-13T10:56:03.114Z,1.90
2019-05-13T10:58:32.974Z,1.80
2019-05-13T11:01:03.057Z,1.90
2019-05-13T11:03:33.251Z,1.98
2019-05-13T11:06:02.797Z,2.30
2019-05-13T11:08:33.017Z,1.95
2019-05-13T11:11:03.377Z,1.92
2019-05-13T11:13:50.864Z,2.05
2019-05-13T11:16:03.626Z,1.92
2019-05-13T11:18:33.088Z,2.10
2019-05-13T11:21:03.036Z,1.80
2019-05-13T11:23:32.551Z,1.80
2019-05-13T11:26:03.128Z,1.70
2019-05-13T11:28:34.000Z,2.10
2019-05-13T11:31:03.739Z,1.35
2019-05-13T11:33:33.056Z,1.60
2019-05-13T11:36:03.353Z,1.22
2019-05-13T11:38:33.450Z,1.40
2019-05-13T11:41:03.460Z,2.22
2019-05-13T11:43:34.036Z,1.50
2019-05-13T11:46:03.491Z,1.42
2019-05-13T11:48:32.786Z,1.47
2019-05-13T11:51:03.898Z,1.30
2019-05-13T11:53:34.492Z,1.62
2019-05-13T11:56:04.289Z,1.50
2019-05-13T11:58:33.528Z,1.92
2019-05-13T12:01:03.976Z,1.70
2019-05-13T12:03:33.609Z,2.05
2019-05-13T12:06:02.930Z,2.15
2019-05-13T12:08:34.307Z,2.30
2019-05-13T12:11:05.025Z,1.70
2019-05-13T12:13:35.076Z,1.82
2019-05-13T12:16:04.489Z,1.67
2019-05-13T12:18:33.791Z,1.45
2019-05-13T12:21:04.110Z,1.90
2019-05-13T12:23:33.621Z,2.37
2019-05-13T12:26:03.989Z,1.50
2019-05-13T12:28:33.854Z,1.57
2019-05-13T12:31:03.467Z,1.67
2019-05-13T12:33:33.006Z,1.62
2019-05-13T12:36:02.536Z,1.67
2019-05-13T12:41:04.942Z,1.40
2019-05-13T12:43:33.750Z,1.70
2019-05-13T12:46:03.434Z,1.75
2019-05-13T12:48:32.659Z,1.50
2019-05-13T12:51:03.058Z,1.80
2019-05-13T12:53:32.750Z,1.82
2019-05-13T12:56:03.374Z,1.90
2019-05-13T12:58:34.217Z,1.60
2019-05-13T13:01:03.648Z,2.27
2019-05-13T13:03:33.120Z,1.75
2019-05-13T13:06:25.687Z,2.02
2019-05-13T13:08:42.992Z,1.80
2019-05-13T13:11:04.270Z,1.60
2019-05-13T13:13:56.863Z,1.82
2019-05-13T13:16:04.717Z,1.55
2019-05-13T13:18:34.055Z,1.40
2019-05-13T13:21:07.208Z,1.50
2019-05-13T13:23:34.399Z,1.45
2019-05-13T13:26:04.088Z,1.47
2019-05-13T13:28:34.316Z,1.62
2019-05-13T13:31:04.390Z,2.00
2019-05-13T13:33:34.581Z,1.47
2019-05-13T13:36:05.667Z,1.60
2019-05-13T13:38:35.072Z,1.50
2019-05-13T13:41:04.548Z,1.60
2019-05-13T13:43:37.001Z,2.12
2019-05-13T13:46:25.311Z,1.70
2019-05-13T13:48:35.841Z,1.52
2019-05-13T13:51:05.364Z,1.40
2019-05-13T13:53:34.864Z,1.30
2019-05-13T13:56:04.764Z,1.60
2019-05-13T13:58:34.349Z,1.72
2019-05-13T14:01:11.573Z,1.95
2019-05-13T14:03:34.952Z,1.50
2019-05-13T14:06:06.537Z,1.50
2019-05-13T14:06:33.066Z,1.40
2019-05-13T14:08:35.499Z,1.22
2019-05-13T14:11:04.582Z,1.30
2019-05-13T14:13:34.850Z,2.30
2019-05-13T14:16:22.442Z,1.67
2019-05-13T14:18:44.870Z,1.20
2019-05-13T14:21:14.442Z,1.30
2019-05-13T14:23:43.824Z,1.42
2019-05-13T14:26:13.208Z,1.35
2019-05-13T14:28:42.406Z,2.22
2019-05-13T14:31:13.362Z,1.50
2019-05-13T14:33:42.645Z,1.60
2019-05-13T14:36:12.340Z,1.62
2019-05-13T14:38:41.796Z,1.40
2019-05-13T14:41:12.350Z,1.50
2019-05-13T14:43:42.080Z,1.77
2019-05-13T14:46:12.609Z,1.40
2019-05-13T14:48:43.334Z,1.55
2019-05-13T14:51:13.207Z,1.70
2019-05-13T14:53:42.440Z,1.47
2019-05-13T14:56:14.272Z,1.80
2019-05-13T14:58:42.396Z,1.80
2019-05-13T15:01:18.583Z,1.75
2019-05-13T15:03:42.816Z,1.60
2019-05-13T15:06:12.526Z,1.70
2019-05-13T15:08:42.277Z,1.50
2019-05-13T15:11:12.546Z,1.95
2019-05-13T15:13:42.611Z,1.82
2019-05-13T15:16:12.263Z,1.52
2019-05-13T15:18:41.833Z,1.70
2019-05-13T15:21:12.144Z,1.50
2019-05-13T15:23:42.349Z,1.52
2019-05-13T15:26:11.925Z,1.70
2019-05-13T15:28:42.235Z,1.62
2019-05-13T15:31:11.692Z,1.50
2019-05-13T15:33:41.576Z,1.57
2019-05-13T15:36:12.016Z,1.95
2019-05-13T15:38:41.570Z,1.60
2019-05-13T15:41:15.278Z,1.95
2019-05-13T15:43:42.457Z,1.75
2019-05-13T15:46:12.650Z,1.60
2019-05-13T15:48:42.297Z,1.67
2019-05-13T15:51:11.551Z,1.42
2019-05-13T15:53:43.529Z,1.62
2019-05-13T15:56:12.543Z,2.33
2019-05-13T15:58:44.634Z,1.62
2019-05-13T16:01:15.294Z,1.40
2019-05-13T16:03:44.740Z,1.50
2019-05-13T16:06:14.253Z,1.45
2019-05-13T16:08:43.839Z,1.92
2019-05-13T16:11:16.480Z,1.65
2019-05-13T16:13:46.273Z,1.40
2019-05-13T16:16:15.976Z,1.75
2019-05-13T16:18:45.308Z,1.60
2019-05-13T16:21:14.699Z,1.60
2019-05-13T16:23:43.902Z,1.50
2019-05-13T16:26:13.305Z,1.30
2019-05-13T16:28:42.980Z,2.08
2019-05-13T16:31:12.151Z,1.50
2019-05-13T16:33:41.698Z,1.30
2019-05-13T16:36:12.627Z,1.40
2019-05-13T16:38:42.532Z,1.40
2019-05-13T16:41:12.684Z,1.52
2019-05-13T16:43:42.762Z,1.65
2019-05-13T16:46:12.418Z,1.65
2019-05-13T16:48:42.864Z,1.67
2019-05-13T16:51:12.751Z,1.45
2019-05-13T16:53:42.434Z,2.02
2019-05-13T16:56:25.613Z,1.57
2019-05-13T16:58:42.725Z,1.50
2019-05-13T17:01:12.062Z,1.65
2019-05-13T17:03:41.709Z,1.60
2019-05-13T17:06:12.728Z,1.90
2019-05-13T17:08:42.455Z,1.42
2019-05-13T17:11:12.036Z,1.50
2019-05-13T17:13:42.208Z,1.42
2019-05-13T17:16:11.945Z,1.52
2019-05-13T17:18:41.704Z,1.62
2019-05-13T17:21:11.386Z,1.45
2019-05-13T17:23:41.858Z,2.02
2019-05-13T17:26:11.749Z,1.45
2019-05-13T17:28:41.753Z,1.15
2019-05-13T17:31:11.693Z,1.40
2019-05-13T17:33:41.295Z,1.60
2019-05-13T17:36:12.299Z,1.35
2019-05-13T17:38:42.081Z,1.57
2019-05-13T17:41:12.245Z,1.27
2019-05-13T17:43:41.819Z,1.70
2019-05-13T17:46:11.108Z,1.45
2019-05-13T17:48:41.684Z,1.57
2019-05-13T17:51:13.103Z,1.40
2019-05-13T17:53:42.178Z,1.20
2019-05-13T17:56:11.381Z,1.60
2019-05-13T17:58:42.027Z,1.20
2019-05-13T18:01:12.064Z,1.30
2019-05-13T18:03:41.375Z,1.25
2019-05-13T18:06:11.477Z,1.50
2019-05-13T18:08:41.257Z,1.15
2019-05-13T18:11:11.367Z,1.25
2019-05-13T18:13:43.600Z,1.40
2019-05-13T18:16:12.562Z,1.20
2019-05-13T18:18:46.912Z,1.40
2019-05-13T18:21:13.005Z,1.55
2019-05-13T18:23:42.359Z,1.27
2019-05-13T18:26:12.424Z,1.40
2019-05-13T18:28:42.269Z,1.32
2019-05-13T18:31:12.253Z,1.47
2019-05-13T18:33:42.437Z,1.32
2019-05-13T18:36:12.095Z,1.40
2019-05-13T18:38:41.870Z,2.00
2019-05-13T18:41:11.992Z,1.22
2019-05-13T18:43:41.455Z,1.00
2019-05-13T18:46:12.407Z,1.50
2019-05-13T18:48:57.763Z,2.08
2019-05-13T18:51:12.877Z,1.60
2019-05-13T18:53:42.411Z,1.12
2019-05-13T18:56:12.389Z,1.42
2019-05-13T18:58:41.971Z,1.55
2019-05-13T19:01:11.337Z,1.27
2019-05-13T19:03:41.431Z,1.42
2019-05-13T19:06:11.692Z,1.20
2019-05-13T19:08:41.518Z,1.30
2019-05-13T19:11:11.810Z,1.10
2019-05-13T19:13:48.564Z,1.47
2019-05-13T19:16:17.680Z,1.47
2019-05-13T19:18:51.599Z,1.35
2019-05-13T19:21:21.891Z,1.47
2019-05-13T19:23:51.411Z,1.72
2019-05-13T19:26:21.814Z,1.72
2019-05-13T19:28:51.637Z,1.50
2019-05-13T19:31:22.085Z,2.00
2019-05-13T19:33:52.104Z,1.70
2019-05-13T19:36:21.753Z,1.77
2019-05-13T19:38:52.192Z,1.20
2019-05-13T19:41:22.237Z,1.42
2019-05-13T19:43:51.758Z,1.60
2019-05-13T19:46:21.075Z,1.37
2019-05-13T19:48:52.192Z,1.72
2019-05-13T19:51:21.714Z,1.30
2019-05-13T19:53:51.684Z,1.20
2019-05-13T19:56:21.502Z,1.40
2019-05-13T19:58:51.080Z,1.20
2019-05-13T20:01:21.641Z,1.02
2019-05-13T20:03:51.603Z,1.32
2019-05-13T20:06:21.392Z,1.45
2019-05-13T20:09:09.765Z,1.22
2019-05-13T20:11:39.206Z,1.20
2019-05-13T20:14:08.435Z,1.32
2019-05-13T20:16:37.563Z,1.10
2019-05-13T20:19:06.900Z,1.45
2019-05-13T20:21:36.131Z,1.20
2019-05-13T20:24:05.321Z,1.20
2019-05-13T20:26:35.762Z,1.17
2019-05-13T20:29:04.999Z,1.15
2019-05-13T20:31:34.490Z,1.20
2019-05-13T20:34:03.755Z,1.30
2019-05-13T20:36:32.945Z,1.57
2019-05-13T20:39:02.282Z,1.05
2019-05-13T20:41:31.774Z,1.37
2019-05-13T20:44:01.486Z,1.27
2019-05-13T20:46:32.720Z,1.50
2019-05-13T20:49:02.209Z,1.30
2019-05-13T20:51:31.492Z,1.55
2019-05-13T20:54:02.368Z,1.55
2019-05-13T20:56:31.870Z,1.50
2019-05-13T20:59:01.005Z,1.63
2019-05-13T21:01:30.227Z,1.90
2019-05-13T21:04:01.664Z,1.62
2019-05-13T21:06:31.597Z,2.25
2019-05-13T21:09:01.579Z,2.83
2019-05-13T21:11:31.142Z,2.10
2019-05-13T21:14:01.188Z,2.40
2019-05-13T21:16:30.823Z,2.22
2019-05-13T21:19:01.877Z,1.98
2019-05-13T21:21:31.813Z,2.12
2019-05-13T21:24:03.795Z,2.35
2019-05-13T21:26:42.157Z,2.30
2019-05-13T21:29:11.722Z,2.60
2019-05-13T21:31:42.890Z,2.47
2019-05-13T21:34:15.222Z,2.70
2019-05-13T21:36:51.796Z,2.55
2019-05-13T21:39:21.409Z,2.92
2019-05-13T21:41:53.835Z,3.10
2019-05-13T21:44:24.044Z,2.95
2019-05-13T21:46:53.851Z,2.70
2019-05-13T21:49:27.222Z,2.93
2019-05-13T21:51:59.707Z,3.67
2019-05-13T21:54:33.651Z,2.93
2019-05-13T21:57:05.964Z,3.30
2019-05-13T21:59:34.929Z,3.07
2019-05-13T22:02:08.969Z,3.45
2019-05-13T22:04:38.721Z,3.22
2019-05-13T22:07:12.115Z,2.98
2019-05-13T22:10:04.346Z,3.03
2019-05-13T22:12:33.498Z,3.07
2019-05-13T22:15:03.185Z,3.20
2019-05-13T22:17:34.372Z,2.80
2019-05-13T22:20:07.791Z,3.10
2019-05-13T22:22:47.152Z,3.33
2019-05-13T22:25:16.433Z,3.22
2019-05-13T22:27:45.773Z,3.20
2019-05-13T22:30:16.039Z,3.20
2019-05-13T22:32:45.168Z,3.33
2019-05-13T22:35:14.785Z,3.10
2019-05-13T22:37:44.117Z,3.00
2019-05-13T22:40:13.270Z,3.25
2019-05-13T22:42:42.396Z,3.07
2019-05-13T22:45:11.857Z,2.97
2019-05-13T22:47:41.717Z,3.10
2019-05-13T22:50:17.213Z,2.95
2019-05-13T22:52:46.449Z,3.50
2019-05-13T22:55:17.336Z,2.93
2019-05-13T22:57:46.629Z,3.10
2019-05-13T23:00:15.889Z,3.37
2019-05-13T23:02:45.220Z,3.23
2019-05-13T23:05:14.469Z,3.33
2019-05-13T23:07:43.707Z,2.70
2019-05-13T23:10:13.411Z,3.77
2019-05-13T23:12:42.519Z,3.50
2019-05-13T23:15:12.102Z,3.37
2019-05-13T23:17:41.678Z,3.47
2019-05-13T23:20:11.067Z,3.00
2019-05-13T23:22:41.513Z,3.13
2019-05-13T23:25:12.204Z,3.70
2019-05-13T23:27:41.655Z,4.13
2019-05-13T23:30:11.640Z,3.40
2019-05-13T23:32:41.105Z,3.80
2019-05-13T23:35:11.195Z,3.60
2019-05-13T23:37:41.674Z,3.70
2019-05-13T23:40:12.289Z,3.20
2019-05-13T23:42:41.489Z,3.37
2019-05-13T23:45:11.542Z,3.37
2019-05-13T23:47:41.800Z,3.10
2019-05-13T23:50:12.448Z,4.13
2019-05-13T23:52:41.955Z,3.80
2019-05-13T23:55:11.374Z,3.70
2019-05-13T23:57:42.135Z,3.40
